Time;durP1;ratioP1;P1;durP2;ratioP2;P2;SDS_P1;SDS_P2;PMS_P1;PMS_P2;Temp;Humidity;BMP_temperature;BMP_pressure;BME280_temperature;BME280_humidity;BME280_pressure;Samples;Min_cycle;Max_cycle;Signal;HPM_P1;HPM_P2
2024/02/20 00:01:31;;;;;;;1.20;0.73;;;;;;;;;;5034685;28;20394;-79
2024/02/20 00:03:57;;;;;;;1.27;0.70;;;;;;;;;;5034836;28;20498;-79
2024/02/20 00:06:23;;;;;;;0.95;0.70;;;;;;;;;;5034893;28;20411;-79
2024/02/20 00:08:49;;;;;;;1.73;0.77;;;;;;;;;;5034431;28;20861;-79
2024/02/20 00:11:15;;;;;;;1.63;1.00;;;;;;;;;;5033752;28;20386;-79
2024/02/20 00:13:41;;;;;;;1.80;1.10;;;;;;;;;;5034547;28;20395;-79
2024/02/20 00:16:07;;;;;;;1.45;1.02;;;;;;;;;;5034219;28;20390;-79
2024/02/20 00:18:33;;;;;;;1.17;0.98;;;;;;;;;;5034007;28;20924;-80
2024/02/20 00:20:59;;;;;;;0.98;0.88;;;;;;;;;;5034011;28;20387;-79
2024/02/20 00:23:25;;;;;;;1.00;0.80;;;;;;;;;;5034285;28;20441;-79
2024/02/20 00:25:51;;;;;;;1.52;1.20;;;;;;;;;;5034151;28;20387;-79
2024/02/20 00:28:17;;;;;;;2.40;1.25;;;;;;;;;;5033962;28;20378;-79
2024/02/20 00:30:50;;;;;;;1.90;1.70;;;;;;;;;;5092644;28;20369;-80
2024/02/20 00:33:16;;;;;;;3.17;1.45;;;;;;;;;;5091141;28;20425;-80
2024/02/20 00:35:42;;;;;;;1.38;1.23;;;;;;;;;;5092847;28;20383;-80
2024/02/20 00:38:08;;;;;;;0.85;0.65;;;;;;;;;;5091019;28;20426;-80
2024/02/20 00:40:34;;;;;;;1.38;0.70;;;;;;;;;;5092845;28;20375;-80
2024/02/20 00:43:00;;;;;;;1.73;0.80;;;;;;;;;;5091446;28;20706;-80
2024/02/20 00:45:27;;;;;;;1.13;0.65;;;;;;;;;;5092120;28;20411;-80
2024/02/20 00:47:53;;;;;;;1.23;0.65;;;;;;;;;;5092280;28;20399;-80
2024/02/20 00:50:19;;;;;;;1.30;0.77;;;;;;;;;;5092422;28;20528;-80
2024/02/20 00:52:45;;;;;;;0.75;0.52;;;;;;;;;;5092549;28;20421;-80
2024/02/20 00:55:13;;;;;;;1.77;0.75;;;;;;;;;;5092339;28;20415;-80
2024/02/20 00:57:39;;;;;;;1.80;0.70;;;;;;;;;;5092256;28;20383;-80
2024/02/20 01:00:05;;;;;;;0.90;0.60;;;;;;;;;;5092420;28;20390;-80
2024/02/20 01:02:31;;;;;;;0.90;0.63;;;;;;;;;;5092458;28;20458;-80
2024/02/20 01:04:57;;;;;;;0.73;0.60;;;;;;;;;;5092011;28;20834;-80
2024/02/20 01:07:24;;;;;;;1.10;0.70;;;;;;;;;;5092008;28;20371;-80
2024/02/20 01:09:50;;;;;;;1.05;0.82;;;;;;;;;;5092082;28;20406;-80
2024/02/20 01:12:16;;;;;;;1.70;0.73;;;;;;;;;;5092015;28;20382;-80
2024/02/20 01:14:44;;;;;;;0.90;0.70;;;;;;;;;;5090879;28;20378;-80
2024/02/20 01:17:10;;;;;;;1.60;0.80;;;;;;;;;;5090873;28;20371;-80
2024/02/20 01:19:36;;;;;;;1.08;0.80;;;;;;;;;;5091207;28;20880;-80
2024/02/20 01:22:02;;;;;;;2.65;0.80;;;;;;;;;;5090918;28;20614;-80
2024/02/20 01:24:28;;;;;;;1.00;0.60;;;;;;;;;;5091399;28;20448;-80
2024/02/20 01:26:54;;;;;;;0.60;0.60;;;;;;;;;;5091362;28;20383;-80
2024/02/20 01:29:21;;;;;;;1.50;0.90;;;;;;;;;;5091180;28;20418;-80
2024/02/20 01:31:49;;;;;;;1.20;0.80;;;;;;;;;;5091155;28;20383;-80
2024/02/20 01:34:15;;;;;;;1.20;0.90;;;;;;;;;;5090693;28;20386;-80
2024/02/20 01:36:41;;;;;;;0.90;0.80;;;;;;;;;;5090551;28;20429;-80
2024/02/20 01:39:07;;;;;;;0.85;0.70;;;;;;;;;;5090896;28;20775;-80
2024/02/20 01:41:33;;;;;;;1.20;0.70;;;;;;;;;;5080674;28;20413;-80
2024/02/20 01:43:59;;;;;;;0.90;0.73;;;;;;;;;;5077515;28;20372;-80
2024/02/20 01:46:26;;;;;;;0.80;0.80;;;;;;;;;;5077161;28;20403;-80
2024/02/20 01:48:52;;;;;;;1.08;0.68;;;;;;;;;;5076936;28;20400;-80
2024/02/20 01:51:18;;;;;;;1.58;0.70;;;;;;;;;;5077090;28;20507;-80
2024/02/20 01:53:45;;;;;;;1.15;0.75;;;;;;;;;;5077227;28;20727;-80
2024/02/20 01:56:13;;;;;;;0.70;0.70;;;;;;;;;;5077588;28;20404;-80
2024/02/20 01:58:39;;;;;;;1.10;0.82;;;;;;;;;;5077824;28;20459;-80
2024/02/20 02:01:05;;;;;;;0.60;0.60;;;;;;;;;;5077814;28;20760;-80
2024/02/20 02:03:31;;;;;;;0.83;0.80;;;;;;;;;;5077440;28;20372;-80
2024/02/20 02:05:57;;;;;;;2.00;0.73;;;;;;;;;;5076500;28;20371;-80
2024/02/20 02:08:23;;;;;;;1.25;0.70;;;;;;;;;;5059289;28;20862;-80
2024/02/20 02:10:49;;;;;;;1.20;0.82;;;;;;;;;;5056806;28;20495;-80
2024/02/20 02:13:15;;;;;;;1.42;1.00;;;;;;;;;;5056762;28;20393;-80
2024/02/20 02:15:42;;;;;;;2.70;0.90;;;;;;;;;;5056906;28;20389;-80
2024/02/20 02:18:07;;;;;;;0.75;0.68;;;;;;;;;;5056424;28;20373;-80
2024/02/20 02:20:33;;;;;;;1.10;0.77;;;;;;;;;;5057012;28;20449;-80
2024/02/20 02:23:00;;;;;;;2.05;0.63;;;;;;;;;;5056123;28;20867;-80
2024/02/20 02:25:26;;;;;;;1.50;0.60;;;;;;;;;;5056253;28;20381;-80
2024/02/20 02:27:56;;;;;;;0.70;0.50;;;;;;;;;;5055971;28;20378;-80
2024/02/20 02:30:23;;;;;;;1.17;0.57;;;;;;;;;;5056430;28;20428;-80
2024/02/20 02:32:50;;;;;;;0.90;0.50;;;;;;;;;;5055910;28;20416;-80
2024/02/20 02:35:16;;;;;;;0.60;0.50;;;;;;;;;;5056638;28;20404;-80
2024/02/20 02:37:42;;;;;;;0.43;0.43;;;;;;;;;;5056447;28;20464;-80
2024/02/20 02:40:12;;;;;;;0.40;0.30;;;;;;;;;;5056457;28;20382;-80
2024/02/20 02:42:38;;;;;;;0.77;0.40;;;;;;;;;;5056281;28;20385;-80
2024/02/20 02:45:04;;;;;;;0.30;0.30;;;;;;;;;;5058763;28;20396;-80
2024/02/20 02:47:30;;;;;;;0.40;0.30;;;;;;;;;;5063957;28;20385;-80
2024/02/20 02:49:56;;;;;;;0.47;0.30;;;;;;;;;;5054212;28;20405;-78
2024/02/20 02:52:22;;;;;;;0.20;0.20;;;;;;;;;;5054686;28;20374;-80
2024/02/20 02:54:48;;;;;;;0.40;0.30;;;;;;;;;;5056387;28;20885;-80
2024/02/20 02:57:15;;;;;;;0.40;0.30;;;;;;;;;;5055008;28;20378;-80
2024/02/20 02:59:41;;;;;;;0.20;0.20;;;;;;;;;;5055216;28;20867;-80
2024/02/20 03:02:10;;;;;;;0.28;0.20;;;;;;;;;;5055761;28;20438;-80
2024/02/20 03:04:36;;;;;;;0.17;0.17;;;;;;;;;;5077707;28;20438;-80
2024/02/20 03:07:02;;;;;;;0.30;0.20;;;;;;;;;;5090428;28;20378;-80
2024/02/20 03:09:28;;;;;;;0.25;0.25;;;;;;;;;;5087859;28;20459;-80
2024/02/20 03:11:54;;;;;;;0.20;0.20;;;;;;;;;;5075848;28;20399;-80
2024/02/20 03:14:21;;;;;;;0.80;0.30;;;;;;;;;;5075879;28;20845;-80
2024/02/20 03:16:48;;;;;;;0.17;0.10;;;;;;;;;;5075703;28;20378;-80
2024/02/20 03:19:14;;;;;;;0.50;0.10;;;;;;;;;;5076401;28;20388;-80
2024/02/20 03:21:41;;;;;;;0.20;0.20;;;;;;;;;;5076167;28;20921;-80
2024/02/20 03:24:09;;;;;;;0.15;0.15;;;;;;;;;;5075526;28;20379;-80
2024/02/20 03:26:35;;;;;;;0.40;0.40;;;;;;;;;;5075987;28;20392;-80
2024/02/20 03:29:01;;;;;;;0.75;0.60;;;;;;;;;;5075384;28;20432;-80
2024/02/20 03:31:27;;;;;;;2.95;2.17;;;;;;;;;;5075921;28;20376;-80
2024/02/20 03:33:53;;;;;;;1.70;1.20;;;;;;;;;;5075374;28;20371;-80
2024/02/20 03:36:19;;;;;;;0.20;0.20;;;;;;;;;;5075740;28;20404;-80
2024/02/20 03:38:45;;;;;;;0.40;0.30;;;;;;;;;;5075402;28;20379;-80
2024/02/20 03:41:11;;;;;;;1.00;0.20;;;;;;;;;;5075693;28;20441;-80
2024/02/20 03:43:37;;;;;;;0.20;0.13;;;;;;;;;;5075514;28;20406;-80
2024/02/20 03:46:04;;;;;;;0.55;0.30;;;;;;;;;;5074820;28;20438;-80
2024/02/20 03:48:30;;;;;;;0.30;0.30;;;;;;;;;;5075454;28;20444;-80
2024/02/20 03:50:56;;;;;;;0.63;0.30;;;;;;;;;;5075555;28;20439;-80
2024/02/20 03:53:23;;;;;;;0.20;0.20;;;;;;;;;;5075633;28;20821;-80
2024/02/20 03:55:49;;;;;;;0.50;0.38;;;;;;;;;;5075851;28;20439;-80
2024/02/20 03:58:15;;;;;;;0.85;0.30;;;;;;;;;;5075598;28;20403;-80
2024/02/20 04:00:41;;;;;;;0.47;0.30;;;;;;;;;;5075872;28;20403;-80
2024/02/20 04:03:07;;;;;;;0.30;0.30;;;;;;;;;;5075625;28;20413;-80
2024/02/20 04:05:33;;;;;;;0.60;0.45;;;;;;;;;;5073416;28;20718;-80
2024/02/20 04:07:59;;;;;;;0.63;0.40;;;;;;;;;;5065093;28;20381;-80
2024/02/20 04:10:25;;;;;;;0.65;0.43;;;;;;;;;;5055212;28;21196;-80
2024/02/20 04:12:51;;;;;;;1.20;0.50;;;;;;;;;;5055110;28;20453;-80
2024/02/20 04:15:17;;;;;;;1.20;0.40;;;;;;;;;;5055200;28;20432;-80
2024/02/20 04:17:43;;;;;;;0.80;0.50;;;;;;;;;;5055074;28;20389;-80
2024/02/20 04:20:11;;;;;;;1.00;0.60;;;;;;;;;;5054619;28;20723;-80
2024/02/20 04:22:37;;;;;;;1.00;0.52;;;;;;;;;;5054875;28;20382;-80
2024/02/20 04:25:05;;;;;;;1.08;0.60;;;;;;;;;;5054488;28;20863;-80
2024/02/20 04:27:31;;;;;;;2.78;0.52;;;;;;;;;;5055316;28;20527;-80
2024/02/20 04:29:57;;;;;;;1.40;0.80;;;;;;;;;;5054756;28;20467;-80
2024/02/20 04:32:23;;;;;;;0.80;0.80;;;;;;;;;;5056749;28;20550;-80
2024/02/20 04:34:49;;;;;;;0.98;0.63;;;;;;;;;;5063102;28;20372;-80
2024/02/20 04:37:16;;;;;;;0.65;0.50;;;;;;;;;;5072295;28;20395;-80
2024/02/20 04:39:44;;;;;;;1.27;0.50;;;;;;;;;;5075076;28;20383;-80
2024/02/20 04:42:10;;;;;;;0.90;0.50;;;;;;;;;;5074649;28;20395;-80
2024/02/20 04:44:39;;;;;;;1.27;1.00;;;;;;;;;;5074841;28;20383;-80
2024/02/20 04:47:06;;;;;;;1.10;0.97;;;;;;;;;;5074721;28;20392;-80
2024/02/20 04:49:32;;;;;;;0.90;0.63;;;;;;;;;;5074537;28;20484;-80
2024/02/20 04:51:58;;;;;;;1.05;0.68;;;;;;;;;;5074192;28;20505;-80
2024/02/20 04:54:24;;;;;;;1.02;0.52;;;;;;;;;;5074896;28;20856;-80
2024/02/20 04:56:50;;;;;;;0.68;0.50;;;;;;;;;;5074354;28;20388;-80
2024/02/20 04:59:16;;;;;;;0.80;0.50;;;;;;;;;;5074765;28;20387;-80
2024/02/20 05:01:42;;;;;;;0.60;0.60;;;;;;;;;;5074684;28;20451;-80
2024/02/20 05:04:08;;;;;;;1.02;0.60;;;;;;;;;;5075363;28;20848;-80
2024/02/20 05:06:34;;;;;;;1.73;1.10;;;;;;;;;;5074966;28;20441;-80
2024/02/20 05:09:00;;;;;;;1.10;0.90;;;;;;;;;;5074145;28;20510;-80
2024/02/20 05:11:26;;;;;;;1.15;0.90;;;;;;;;;;5074973;28;20406;-80
2024/02/20 05:13:52;;;;;;;1.10;0.70;;;;;;;;;;5075268;28;20388;-80
2024/02/20 05:16:18;;;;;;;1.05;0.82;;;;;;;;;;5076162;28;20382;-80
2024/02/20 05:18:44;;;;;;;1.80;0.90;;;;;;;;;;5077967;28;20853;-80
2024/02/20 05:21:10;;;;;;;0.98;0.80;;;;;;;;;;5078035;28;20471;-80
2024/02/20 05:23:36;;;;;;;1.60;0.90;;;;;;;;;;5078420;28;20379;-80
2024/02/20 05:26:02;;;;;;;1.83;1.00;;;;;;;;;;5078125;28;20380;-80
2024/02/20 05:28:28;;;;;;;2.22;0.90;;;;;;;;;;5077970;28;20372;-80
2024/02/20 05:30:54;;;;;;;2.80;1.00;;;;;;;;;;5077767;28;20597;-80
2024/02/20 05:33:21;;;;;;;1.85;1.00;;;;;;;;;;5078063;28;20377;-80
2024/02/20 05:35:47;;;;;;;2.22;0.82;;;;;;;;;;5077954;28;20368;-80
2024/02/20 05:38:14;;;;;;;1.95;1.00;;;;;;;;;;5077750;28;20443;-80
2024/02/20 05:40:40;;;;;;;2.22;1.17;;;;;;;;;;5077856;28;20406;-80
2024/02/20 05:43:06;;;;;;;2.92;0.98;;;;;;;;;;5077956;28;20846;-80
2024/02/20 05:45:33;;;;;;;1.88;1.10;;;;;;;;;;5078347;28;20376;-80
2024/02/20 05:48:00;;;;;;;2.22;1.10;;;;;;;;;;5077487;28;20380;-80
2024/02/20 05:50:27;;;;;;;3.88;1.20;;;;;;;;;;5076954;28;20414;-80
2024/02/20 05:52:53;;;;;;;2.33;0.88;;;;;;;;;;5077589;28;20380;-80
2024/02/20 05:55:19;;;;;;;1.77;0.95;;;;;;;;;;5077417;28;20850;-80
2024/02/20 05:57:45;;;;;;;2.22;1.02;;;;;;;;;;5077112;28;20477;-80
2024/02/20 06:00:12;;;;;;;2.60;1.20;;;;;;;;;;5076872;28;20410;-80
2024/02/20 06:02:39;;;;;;;2.15;1.08;;;;;;;;;;5073120;28;20388;-80
2024/02/20 06:05:07;;;;;;;1.73;1.20;;;;;;;;;;5057469;28;20381;-80
2024/02/20 06:07:33;;;;;;;2.08;0.90;;;;;;;;;;5057251;28;20461;-80
2024/02/20 06:09:59;;;;;;;2.38;1.20;;;;;;;;;;5056761;28;20398;-80
2024/02/20 06:12:25;;;;;;;2.90;1.23;;;;;;;;;;5057156;28;20467;-81
2024/02/20 06:14:51;;;;;;;2.85;1.20;;;;;;;;;;5056950;28;20385;-80
2024/02/20 06:17:17;;;;;;;2.33;1.17;;;;;;;;;;5057251;28;20377;-80
2024/02/20 06:19:43;;;;;;;3.53;1.25;;;;;;;;;;5057624;28;20492;-81
2024/02/20 06:22:09;;;;;;;2.83;1.17;;;;;;;;;;5057406;28;20416;-81
2024/02/20 06:24:35;;;;;;;2.50;1.20;;;;;;;;;;5057530;28;20452;-81
2024/02/20 06:27:05;;;;;;;2.75;1.05;;;;;;;;;;5056966;28;20420;-81
2024/02/20 06:29:31;;;;;;;2.75;1.25;;;;;;;;;;5057380;28;20421;-81
2024/02/20 06:31:58;;;;;;;2.30;1.42;;;;;;;;;;5063152;28;20403;-81
2024/02/20 06:34:24;;;;;;;2.75;1.50;;;;;;;;;;5077570;28;20430;-81
2024/02/20 06:36:51;;;;;;;2.70;1.30;;;;;;;;;;5077136;28;20439;-81
2024/02/20 06:39:17;;;;;;;3.25;1.48;;;;;;;;;;5076706;28;20379;-82
2024/02/20 06:41:43;;;;;;;3.15;1.38;;;;;;;;;;5076010;28;20477;-81
2024/02/20 06:44:09;;;;;;;2.63;1.67;;;;;;;;;;5077022;28;20376;-81
2024/02/20 06:46:39;;;;;;;2.17;1.60;;;;;;;;;;5076803;28;20440;-81
2024/02/20 06:49:05;;;;;;;2.63;1.52;;;;;;;;;;5076422;28;20395;-81
2024/02/20 06:51:31;;;;;;;3.05;1.50;;;;;;;;;;5076785;28;20429;-81
2024/02/20 06:53:57;;;;;;;2.75;1.30;;;;;;;;;;5077142;28;20880;-81
2024/02/20 06:56:23;;;;;;;2.22;1.25;;;;;;;;;;5076542;28;20395;-81
2024/02/20 06:58:49;;;;;;;3.50;1.30;;;;;;;;;;5075880;28;20509;-80
2024/02/20 07:01:15;;;;;;;3.20;1.80;;;;;;;;;;5076868;28;20426;-82
2024/02/20 07:03:41;;;;;;;3.67;2.20;;;;;;;;;;5076204;28;20484;-81
2024/02/20 07:06:07;;;;;;;4.18;2.30;;;;;;;;;;5077940;28;20430;-82
2024/02/20 07:08:33;;;;;;;3.90;2.15;;;;;;;;;;5078566;28;20760;-82
2024/02/20 07:10:59;;;;;;;4.43;3.00;;;;;;;;;;5078540;28;20410;-82
2024/02/20 07:13:25;;;;;;;5.00;2.53;;;;;;;;;;5078096;28;20384;-82
2024/02/20 07:15:51;;;;;;;3.75;2.10;;;;;;;;;;5077619;28;20411;-83
2024/02/20 07:18:18;;;;;;;2.72;1.70;;;;;;;;;;5077768;28;20376;-82
2024/02/20 07:20:44;;;;;;;3.25;1.60;;;;;;;;;;5077685;28;20386;-82
2024/02/20 07:23:10;;;;;;;1.92;1.42;;;;;;;;;;5077714;28;20837;-82
2024/02/20 07:25:36;;;;;;;5.53;2.20;;;;;;;;;;5077180;28;20380;-83
2024/02/20 07:28:02;;;;;;;4.30;1.80;;;;;;;;;;5076053;28;20384;-82
2024/02/20 07:30:30;;;;;;;3.28;1.58;;;;;;;;;;5077571;28;20438;-82
2024/02/20 07:32:57;;;;;;;3.70;1.60;;;;;;;;;;5079421;28;20447;-82
2024/02/20 07:35:23;;;;;;;4.55;1.88;;;;;;;;;;5078900;28;20372;-82
2024/02/20 07:37:50;;;;;;;4.10;2.20;;;;;;;;;;5078641;28;20410;-82
2024/02/20 07:40:16;;;;;;;3.40;1.85;;;;;;;;;;5078632;28;20387;-82
2024/02/20 07:42:42;;;;;;;4.88;1.65;;;;;;;;;;5078160;28;20477;-82
2024/02/20 07:45:09;;;;;;;2.67;1.80;;;;;;;;;;5078617;28;21282;-82
2024/02/20 07:47:38;;;;;;;3.57;1.80;;;;;;;;;;5079286;28;20399;-82
2024/02/20 07:50:04;;;;;;;4.40;1.90;;;;;;;;;;5078237;28;20407;-82
2024/02/20 07:52:30;;;;;;;5.10;2.10;;;;;;;;;;5076942;28;20526;-83
2024/02/20 07:54:56;;;;;;;4.55;2.00;;;;;;;;;;5076661;28;20372;-82
2024/02/20 07:57:22;;;;;;;3.50;2.00;;;;;;;;;;5066945;28;20867;-82
2024/02/20 07:59:48;;;;;;;4.30;1.55;;;;;;;;;;5056736;28;20390;-82
2024/02/20 08:02:14;;;;;;;4.03;1.70;;;;;;;;;;5056648;28;20435;-82
2024/02/20 08:04:41;;;;;;;5.40;1.80;;;;;;;;;;5057118;28;20727;-82
2024/02/20 08:07:07;;;;;;;3.92;1.67;;;;;;;;;;5056639;28;20384;-82
2024/02/20 08:09:33;;;;;;;6.20;1.90;;;;;;;;;;5055643;28;20409;-82
2024/02/20 08:11:59;;;;;;;6.57;2.20;;;;;;;;;;5055310;28;20847;-82
2024/02/20 08:14:25;;;;;;;5.35;1.90;;;;;;;;;;5055357;28;20385;-81
2024/02/20 08:16:51;;;;;;;4.35;1.40;;;;;;;;;;5054965;28;20739;-82
2024/02/20 08:19:17;;;;;;;6.10;1.73;;;;;;;;;;5054839;28;20419;-82
2024/02/20 08:21:44;;;;;;;5.82;1.80;;;;;;;;;;5055104;28;20388;-82
2024/02/20 08:24:10;;;;;;;5.40;2.17;;;;;;;;;;5053892;28;20373;-82
2024/02/20 08:26:36;;;;;;;4.97;1.83;;;;;;;;;;5055013;28;20389;-82
2024/02/20 08:29:02;;;;;;;4.53;1.60;;;;;;;;;;5054593;28;20413;-82
2024/02/20 08:31:28;;;;;;;5.95;1.80;;;;;;;;;;5063813;28;20829;-82
2024/02/20 08:33:54;;;;;;;7.28;2.13;;;;;;;;;;5074097;28;20387;-82
2024/02/20 08:36:20;;;;;;;5.47;1.73;;;;;;;;;;5073693;28;20380;-82
2024/02/20 08:38:48;;;;;;;7.45;2.03;;;;;;;;;;5073766;28;20372;-82
2024/02/20 08:41:14;;;;;;;7.20;1.95;;;;;;;;;;5074555;28;20841;-82
2024/02/20 08:43:40;;;;;;;7.23;1.90;;;;;;;;;;5073799;28;20401;-82
2024/02/20 08:46:07;;;;;;;5.72;1.90;;;;;;;;;;5074721;28;20375;-82
2024/02/20 08:48:33;;;;;;;6.68;2.03;;;;;;;;;;5074525;28;20822;-82
2024/02/20 08:50:59;;;;;;;6.55;1.85;;;;;;;;;;5076013;28;20403;-82
2024/02/20 08:53:25;;;;;;;6.87;2.10;;;;;;;;;;5079165;28;20852;-82
2024/02/20 08:55:51;;;;;;;5.68;2.00;;;;;;;;;;5078595;28;20387;-82
2024/02/20 08:58:17;;;;;;;5.73;1.70;;;;;;;;;;5078168;28;20857;-82
2024/02/20 09:00:46;;;;;;;7.40;2.10;;;;;;;;;;5078245;28;20395;-82
2024/02/20 09:03:12;;;;;;;4.85;1.85;;;;;;;;;;5078376;28;20814;-82
2024/02/20 09:05:38;;;;;;;6.25;1.95;;;;;;;;;;5078406;28;20429;-82
2024/02/20 09:08:04;;;;;;;7.32;2.15;;;;;;;;;;5078460;28;20380;-82
2024/02/20 09:10:30;;;;;;;6.07;2.13;;;;;;;;;;5078032;28;20444;-82
2024/02/20 09:12:56;;;;;;;5.35;1.40;;;;;;;;;;5078637;28;20375;-82
2024/02/20 09:15:22;;;;;;;7.13;2.00;;;;;;;;;;5077980;28;20375;-82
2024/02/20 09:17:48;;;;;;;5.83;1.87;;;;;;;;;;5077956;28;20455;-82
2024/02/20 09:20:14;;;;;;;5.90;2.13;;;;;;;;;;5077695;28;20394;-82
2024/02/20 09:22:40;;;;;;;4.40;1.60;;;;;;;;;;5078419;28;20502;-82
2024/02/20 09:25:07;;;;;;;4.40;1.90;;;;;;;;;;5078342;28;20376;-82
2024/02/20 09:27:33;;;;;;;5.20;1.90;;;;;;;;;;5078025;28;20904;-82
2024/02/20 09:29:59;;;;;;;7.10;2.05;;;;;;;;;;5077511;28;20809;-82
2024/02/20 09:32:25;;;;;;;8.88;2.05;;;;;;;;;;5078960;28;20387;-82
2024/02/20 09:34:52;;;;;;;5.35;2.05;;;;;;;;;;5078169;28;20429;-82
2024/02/20 09:37:18;;;;;;;7.75;2.10;;;;;;;;;;5078094;28;20389;-82
2024/02/20 09:39:44;;;;;;;3.92;1.73;;;;;;;;;;5077959;28;20391;-82
2024/02/20 09:42:11;;;;;;;4.38;1.80;;;;;;;;;;5077738;28;20415;-82
2024/02/20 09:44:39;;;;;;;6.05;2.00;;;;;;;;;;5078201;28;20371;-82
2024/02/20 09:47:05;;;;;;;9.20;2.42;;;;;;;;;;5077863;28;20509;-82
2024/02/20 09:49:33;;;;;;;9.00;2.20;;;;;;;;;;5071360;28;20405;-82
2024/02/20 09:52:00;;;;;;;6.63;1.90;;;;;;;;;;5057561;28;20377;-82
2024/02/20 09:54:27;;;;;;;6.63;1.88;;;;;;;;;;5057598;28;20794;-82
2024/02/20 09:56:54;;;;;;;7.03;1.98;;;;;;;;;;5057831;28;20396;-82
2024/02/20 09:59:21;;;;;;;6.07;1.63;;;;;;;;;;5056684;28;20461;-82
2024/02/20 10:01:48;;;;;;;5.60;1.60;;;;;;;;;;5057404;28;20377;-82
2024/02/20 10:04:14;;;;;;;5.03;1.45;;;;;;;;;;5058018;28;20439;-82
2024/02/20 10:06:41;;;;;;;5.78;1.58;;;;;;;;;;5057684;28;20794;-82
2024/02/20 10:09:08;;;;;;;7.55;1.70;;;;;;;;;;5057571;28;20505;-82
2024/02/20 10:11:37;;;;;;;5.20;2.00;;;;;;;;;;5065030;28;20424;-82
2024/02/20 10:14:04;;;;;;;7.32;2.63;;;;;;;;;;5073543;28;20376;-82
2024/02/20 10:16:30;;;;;;;5.30;1.80;;;;;;;;;;5077180;28;20883;-82
2024/02/20 10:19:00;;;;;;;4.75;1.80;;;;;;;;;;5076875;28;20465;-82
2024/02/20 10:21:26;;;;;;;6.10;1.88;;;;;;;;;;5077586;28;20513;-82
2024/02/20 10:24:12;;;;;;;7.90;1.90;;;;;;;;;;5077414;28;20869;-82
2024/02/20 10:26:39;;;;;;;6.57;1.63;;;;;;;;;;5077146;28;20391;-82
2024/02/20 10:29:06;;;;;;;4.30;1.40;;;;;;;;;;5077120;28;20578;-82
2024/02/20 10:31:33;;;;;;;4.30;1.40;;;;;;;;;;5077602;28;20384;-82
2024/02/20 10:33:59;;;;;;;6.70;1.75;;;;;;;;;;5077673;28;20368;-82
2024/02/20 10:36:28;;;;;;;25.52;14.70;;;;;;;;;;5077862;28;20394;-82
2024/02/20 10:39:04;;;;;;;10.25;4.68;;;;;;;;;;5076864;28;20386;-82
2024/02/20 10:41:30;;;;;;;6.63;3.60;;;;;;;;;;5077707;28;20376;-82
2024/02/20 10:43:57;;;;;;;9.25;2.95;;;;;;;;;;5077260;28;20861;-82
2024/02/20 10:46:26;;;;;;;3.95;1.55;;;;;;;;;;5077381;28;20429;-83
2024/02/20 10:48:55;;;;;;;4.35;1.27;;;;;;;;;;5076724;28;20376;-83
2024/02/20 10:51:24;;;;;;;4.05;1.55;;;;;;;;;;5077116;28;20516;-83
2024/02/20 10:53:51;;;;;;;4.38;1.55;;;;;;;;;;5077398;28;20368;-82
2024/02/20 10:56:17;;;;;;;4.93;1.52;;;;;;;;;;5066726;28;20378;-82
2024/02/20 10:58:44;;;;;;;3.70;1.30;;;;;;;;;;5057128;28;20386;-83
2024/02/20 11:01:13;;;;;;;5.18;1.27;;;;;;;;;;5056867;28;20391;-82
2024/02/20 11:03:40;;;;;;;7.18;3.25;;;;;;;;;;5060979;28;20441;-82
2024/02/20 11:06:07;;;;;;;10.52;5.03;;;;;;;;;;5075825;28;20384;-82
2024/02/20 11:08:33;;;;;;;6.07;2.50;;;;;;;;;;5060215;28;20404;-82
2024/02/20 11:11:14;;;;;;;3.13;1.40;;;;;;;;;;5055960;28;20883;-82
2024/02/20 11:13:41;;;;;;;7.57;1.80;;;;;;;;;;5069503;28;20388;-83
2024/02/20 11:16:11;;;;;;;6.93;2.20;;;;;;;;;;5076440;28;20874;-82
2024/02/20 11:18:37;;;;;;;5.13;1.85;;;;;;;;;;5067947;28;20385;-82
2024/02/20 11:21:06;;;;;;;5.23;1.77;;;;;;;;;;5055730;28;20428;-82
2024/02/20 11:23:32;;;;;;;3.90;1.50;;;;;;;;;;5055909;28;20448;-82
2024/02/20 11:26:08;;;;;;;3.80;1.50;;;;;;;;;;5055997;28;20423;-82
2024/02/20 11:28:34;;;;;;;5.40;1.63;;;;;;;;;;5055649;28;20385;-82
2024/02/20 11:31:04;;;;;;;5.68;2.05;;;;;;;;;;5055815;28;20891;-82
2024/02/20 11:33:34;;;;;;;5.32;1.73;;;;;;;;;;5055134;28;20739;-82
2024/02/20 11:36:00;;;;;;;3.80;1.80;;;;;;;;;;5055945;28;20374;-82
2024/02/20 11:38:30;;;;;;;5.93;1.63;;;;;;;;;;5056452;28;20870;-82
2024/02/20 11:40:56;;;;;;;2.83;1.25;;;;;;;;;;5055195;28;20415;-82
2024/02/20 11:43:22;;;;;;;6.03;1.70;;;;;;;;;;5054877;28;20472;-82
2024/02/20 11:45:51;;;;;;;3.80;1.43;;;;;;;;;;5072452;28;20454;-82
2024/02/20 11:48:17;;;;;;;5.03;1.50;;;;;;;;;;5073164;28;20379;-82
2024/02/20 11:50:44;;;;;;;4.95;1.70;;;;;;;;;;5075206;28;20423;-82
2024/02/20 11:53:12;;;;;;;4.18;1.50;;;;;;;;;;5075155;28;20823;-82
2024/02/20 11:55:42;;;;;;;3.72;1.27;;;;;;;;;;5074687;28;20390;-82
2024/02/20 11:58:08;;;;;;;3.45;1.40;;;;;;;;;;5074470;28;20379;-82
2024/02/20 12:00:36;;;;;;;5.67;1.23;;;;;;;;;;5074979;28;20473;-82
2024/02/20 12:03:02;;;;;;;5.45;1.52;;;;;;;;;;5074259;28;20471;-81
2024/02/20 12:05:29;;;;;;;3.95;1.35;;;;;;;;;;5074410;28;20388;-82
2024/02/20 12:07:55;;;;;;;3.88;1.60;;;;;;;;;;5073611;28;20376;-82
2024/02/20 12:10:22;;;;;;;4.90;1.75;;;;;;;;;;5074097;28;20432;-82
2024/02/20 12:12:48;;;;;;;4.50;1.50;;;;;;;;;;5074170;28;20375;-82
2024/02/20 12:15:15;;;;;;;3.40;1.40;;;;;;;;;;5073524;28;20383;-82
2024/02/20 12:17:42;;;;;;;4.18;1.75;;;;;;;;;;5073542;28;20429;-81
2024/02/20 12:20:09;;;;;;;3.25;1.38;;;;;;;;;;5073834;28;20380;-82
2024/02/20 12:22:35;;;;;;;4.65;1.48;;;;;;;;;;5074280;28;20380;-82
2024/02/20 12:25:09;;;;;;;6.00;2.20;;;;;;;;;;5073994;28;20375;-82
2024/02/20 12:27:35;;;;;;;5.40;2.03;;;;;;;;;;5073386;28;20387;-81
2024/02/20 12:30:02;;;;;;;4.82;1.73;;;;;;;;;;5072328;28;20423;-81
2024/02/20 12:32:28;;;;;;;5.63;1.70;;;;;;;;;;5074235;28;20514;-81
2024/02/20 12:34:54;;;;;;;5.80;1.70;;;;;;;;;;5074749;28;20387;-81
2024/02/20 12:37:21;;;;;;;6.13;1.80;;;;;;;;;;5072071;28;20372;-81
2024/02/20 12:39:47;;;;;;;5.35;1.83;;;;;;;;;;5061754;28;20704;-81
2024/02/20 12:42:13;;;;;;;6.13;2.22;;;;;;;;;;5065648;28;20406;-81
2024/02/20 12:44:39;;;;;;;5.50;1.93;;;;;;;;;;5062498;28;20492;-81
2024/02/20 12:47:06;;;;;;;5.47;2.10;;;;;;;;;;5063266;28;20389;-81
2024/02/20 12:49:33;;;;;;;5.63;2.17;;;;;;;;;;5063332;28;20407;-81
2024/02/20 12:51:59;;;;;;;6.10;2.20;;;;;;;;;;5062595;28;20737;-81
2024/02/20 12:54:25;;;;;;;6.28;1.90;;;;;;;;;;5060781;28;20705;-81
2024/02/20 12:56:51;;;;;;;6.30;1.85;;;;;;;;;;5054149;28;20435;-81
2024/02/20 12:59:17;;;;;;;5.00;1.70;;;;;;;;;;5054032;28;20381;-81
2024/02/20 13:01:44;;;;;;;4.43;1.70;;;;;;;;;;5060540;28;20389;-81
2024/02/20 13:04:10;;;;;;;4.82;1.63;;;;;;;;;;5053778;28;20413;-81
2024/02/20 13:06:36;;;;;;;3.78;1.48;;;;;;;;;;5053532;28;20373;-81
2024/02/20 13:09:02;;;;;;;3.25;1.50;;;;;;;;;;5053591;28;20853;-81
2024/02/20 13:11:29;;;;;;;3.35;1.45;;;;;;;;;;5054839;28;20377;-81
2024/02/20 13:13:55;;;;;;;2.97;1.10;;;;;;;;;;5070272;28;20380;-81
2024/02/20 13:16:21;;;;;;;4.90;1.60;;;;;;;;;;5074586;28;20884;-81
2024/02/20 13:18:48;;;;;;;4.60;1.70;;;;;;;;;;5074485;28;20407;-81
2024/02/20 13:21:14;;;;;;;3.35;1.15;;;;;;;;;;5074390;28;20387;-81
2024/02/20 13:23:41;;;;;;;4.07;1.70;;;;;;;;;;5064842;28;20515;-81
2024/02/20 13:26:07;;;;;;;3.58;1.70;;;;;;;;;;5060465;28;20375;-81
2024/02/20 13:28:33;;;;;;;5.03;1.50;;;;;;;;;;5073587;28;20860;-81
2024/02/20 13:30:59;;;;;;;4.88;1.63;;;;;;;;;;5073657;28;20537;-81
2024/02/20 13:33:25;;;;;;;4.20;1.50;;;;;;;;;;5073099;28;20830;-81
2024/02/20 13:35:51;;;;;;;4.13;1.38;;;;;;;;;;5073541;28;20414;-81
2024/02/20 13:38:17;;;;;;;3.83;1.48;;;;;;;;;;5076574;28;20756;-81
2024/02/20 13:40:43;;;;;;;5.73;1.57;;;;;;;;;;5074586;28;20870;-81
2024/02/20 13:43:09;;;;;;;4.00;1.30;;;;;;;;;;5068111;28;20394;-81
2024/02/20 13:45:45;;;;;;;3.70;1.30;;;;;;;;;;5077497;28;20392;-81
2024/02/20 13:48:15;;;;;;;2.88;1.17;;;;;;;;;;5076679;28;20468;-81
2024/02/20 13:50:45;;;;;;;2.53;1.10;;;;;;;;;;5065020;28;20444;-81
2024/02/20 13:53:14;;;;;;;2.70;1.27;;;;;;;;;;5057641;28;20899;-81
2024/02/20 13:55:41;;;;;;;5.13;1.50;;;;;;;;;;5059370;28;20425;-81
2024/02/20 13:58:07;;;;;;;3.35;1.23;;;;;;;;;;5071807;28;20384;-81
2024/02/20 14:00:33;;;;;;;3.50;1.10;;;;;;;;;;5076245;28;20396;-81
2024/02/20 14:02:59;;;;;;;5.45;1.40;;;;;;;;;;5076521;28;20437;-82
2024/02/20 14:05:25;;;;;;;3.42;1.48;;;;;;;;;;5067673;28;20389;-82
2024/02/20 14:07:54;;;;;;;5.20;1.55;;;;;;;;;;5056144;28;20443;-81
2024/02/20 14:10:20;;;;;;;3.72;1.10;;;;;;;;;;5055735;28;20401;-82
2024/02/20 14:12:46;;;;;;;5.97;1.25;;;;;;;;;;5056807;28;20405;-82
2024/02/20 14:15:12;;;;;;;3.58;1.33;;;;;;;;;;5056369;28;20464;-82
2024/02/20 14:17:39;;;;;;;7.50;1.45;;;;;;;;;;5056080;28;20430;-82
2024/02/20 14:20:08;;;;;;;4.28;1.60;;;;;;;;;;5056387;28;20766;-82
2024/02/20 14:22:35;;;;;;;4.93;1.50;;;;;;;;;;5057387;28;20385;-81
2024/02/20 14:25:01;;;;;;;3.80;1.30;;;;;;;;;;5056433;28;20439;-82
2024/02/20 14:27:27;;;;;;;5.13;1.40;;;;;;;;;;5056971;28;20840;-82
2024/02/20 14:29:53;;;;;;;4.22;1.40;;;;;;;;;;5057293;28;20419;-82
2024/02/20 14:32:19;;;;;;;4.95;1.60;;;;;;;;;;5056789;28;20388;-82
2024/02/20 14:34:45;;;;;;;3.53;1.60;;;;;;;;;;5073267;28;20410;-82
2024/02/20 14:37:11;;;;;;;4.30;1.47;;;;;;;;;;5077143;28;20372;-82
2024/02/20 14:39:37;;;;;;;4.03;1.73;;;;;;;;;;5077366;28;20378;-82